createdAt,value
2022-08-26T00:01:12.095Z,94.20
2022-08-26T00:04:36.046Z,93.90
2022-08-26T00:07:18.815Z,94.00
2022-08-26T00:10:17.521Z,93.80
2022-08-26T00:12:52.148Z,93.80
2022-08-26T00:15:29.702Z,93.70
2022-08-26T00:18:54.277Z,94.10
2022-08-26T00:25:43.429Z,94.30
2022-08-26T00:28:30.070Z,94.50
2022-08-26T00:31:05.314Z,94.90
2022-08-26T00:33:42.132Z,95.20
2022-08-26T00:36:20.245Z,95.00
2022-08-26T00:38:55.151Z,94.60
2022-08-26T00:42:01.799Z,95.10
2022-08-26T00:49:19.701Z,94.80
2022-08-26T00:52:02.789Z,94.60
2022-08-26T00:54:48.521Z,94.70
2022-08-26T00:57:25.569Z,94.50
2022-08-26T01:00:25.982Z,94.70
2022-08-26T01:03:07.472Z,94.90
2022-08-26T01:06:04.335Z,94.90
2022-08-26T01:08:48.148Z,94.90
2022-08-26T01:11:30.260Z,94.90
2022-08-26T01:14:41.211Z,95.30
2022-08-26T01:17:22.183Z,94.70
2022-08-26T01:20:50.448Z,94.90
2022-08-26T01:27:58.796Z,94.80
2022-08-26T01:31:18.242Z,94.90
2022-08-26T01:34:12.402Z,94.70
2022-08-26T01:37:15.517Z,94.90
2022-08-26T01:39:57.320Z,95.00
2022-08-26T01:42:36.526Z,95.10
2022-08-26T01:45:18.543Z,95.10
2022-08-26T01:48:20.694Z,95.00
2022-08-26T01:50:56.328Z,95.00
2022-08-26T01:53:32.536Z,95.00
2022-08-26T01:56:08.111Z,95.50
2022-08-26T01:58:53.400Z,95.60
2022-08-26T02:01:49.549Z,95.40
2022-08-26T02:05:12.003Z,95.40
2022-08-26T02:07:50.829Z,95.40
2022-08-26T02:10:25.314Z,95.80
2022-08-26T02:13:08.500Z,95.60
2022-08-26T02:16:05.825Z,95.50
2022-08-26T02:19:02.980Z,95.40
2022-08-26T02:21:41.253Z,95.60
2022-08-26T02:24:20.771Z,96.40
2022-08-26T02:27:12.115Z,95.70
2022-08-26T02:29:53.872Z,95.60
2022-08-26T02:33:05.549Z,95.40
2022-08-26T02:36:41.707Z,95.30
2022-08-26T02:39:49.589Z,95.50
2022-08-26T02:43:38.032Z,95.70
2022-08-26T02:46:41.700Z,95.60
2022-08-26T02:49:41.706Z,95.50
2022-08-26T02:52:24.276Z,95.60
2022-08-26T02:55:59.164Z,96.50
2022-08-26T03:03:12.999Z,95.90
2022-08-26T03:06:24.827Z,96.00
2022-08-26T03:09:24.086Z,95.90
2022-08-26T03:12:00.426Z,95.70
2022-08-26T03:14:35.071Z,95.70
2022-08-26T03:17:53.847Z,96.40
2022-08-26T03:20:43.918Z,96.20
2022-08-26T03:23:30.653Z,96.00
2022-08-26T03:26:18.420Z,96.50
2022-08-26T03:29:41.421Z,96.20
2022-08-26T03:32:24.029Z,96.10
2022-08-26T03:35:07.554Z,96.10
2022-08-26T03:38:01.839Z,96.30
2022-08-26T03:40:42.667Z,96.40
2022-08-26T03:43:18.926Z,96.20
2022-08-26T03:46:26.760Z,96.50
2022-08-26T03:49:23.478Z,96.40
2022-08-26T03:51:59.213Z,96.30
2022-08-26T03:54:37.846Z,96.30
2022-08-26T03:57:42.428Z,96.30
2022-08-26T04:00:55.673Z,96.30
2022-08-26T04:03:47.532Z,96.30
2022-08-26T04:06:22.614Z,96.70
2022-08-26T04:09:02.485Z,96.20
2022-08-26T04:12:08.206Z,96.10
2022-08-26T04:15:06.754Z,96.10
2022-08-26T04:17:55.922Z,96.20
2022-08-26T04:21:23.165Z,96.10
2022-08-26T04:23:58.987Z,96.10
2022-08-26T04:26:39.567Z,96.10
2022-08-26T04:29:42.037Z,96.50
2022-08-26T04:32:23.932Z,96.30
2022-08-26T04:34:58.373Z,96.40
2022-08-26T04:37:42.991Z,96.40
2022-08-26T04:40:18.187Z,96.40
2022-08-26T04:43:49.129Z,96.50
2022-08-26T04:46:28.799Z,96.50
2022-08-26T04:49:09.331Z,96.70
2022-08-26T04:51:48.961Z,96.80
2022-08-26T04:54:36.372Z,96.70
2022-08-26T04:57:11.009Z,96.80
2022-08-26T04:59:45.795Z,97.20
2022-08-26T05:02:26.106Z,96.80
2022-08-26T05:05:01.930Z,97.40
2022-08-26T05:07:38.307Z,96.60
2022-08-26T05:10:42.621Z,96.70
2022-08-26T05:13:39.172Z,96.60
2022-08-26T05:16:48.039Z,96.80
2022-08-26T05:19:27.999Z,96.70
2022-08-26T05:22:24.126Z,96.70
2022-08-26T05:25:24.104Z,96.60
2022-08-26T05:29:06.609Z,96.60
2022-08-26T05:31:56.039Z,96.80
2022-08-26T05:34:59.904Z,96.70
2022-08-26T05:37:42.896Z,96.80
2022-08-26T05:43:38.079Z,96.90
2022-08-26T05:46:27.138Z,96.90
2022-08-26T05:49:12.534Z,96.80
2022-08-26T05:52:12.711Z,97.50
2022-08-26T05:54:49.527Z,97.30
2022-08-26T05:57:37.433Z,97.00
2022-08-26T06:00:18.287Z,96.90
2022-08-26T06:02:54.673Z,96.60
2022-08-26T06:05:35.305Z,96.40
2022-08-26T06:08:19.424Z,96.90
2022-08-26T06:11:21.811Z,97.20
2022-08-26T06:14:26.688Z,96.50
2022-08-26T06:17:25.822Z,96.60
2022-08-26T06:28:45.513Z,96.60
2022-08-26T06:40:11.474Z,96.30
2022-08-26T06:43:21.114Z,96.60
2022-08-26T06:46:31.605Z,96.10
2022-08-26T06:49:44.397Z,96.00
2022-08-26T07:00:57.581Z,95.70
2022-08-26T07:04:35.913Z,96.50
2022-08-26T07:07:18.944Z,95.50
2022-08-26T07:09:56.760Z,95.20
2022-08-26T07:12:54.339Z,95.70
2022-08-26T07:16:23.494Z,95.10
2022-08-26T07:18:58.406Z,94.80
2022-08-26T07:21:34.410Z,95.30
2022-08-26T07:32:46.142Z,93.60
2022-08-26T07:35:41.817Z,92.80
2022-08-26T07:38:22.593Z,92.40
2022-08-26T07:41:14.365Z,92.40
2022-08-26T07:44:36.119Z,92.30
2022-08-26T07:47:26.134Z,91.90
2022-08-26T07:50:12.282Z,91.70
2022-08-26T07:54:04.262Z,91.20
2022-08-26T07:56:56.963Z,91.30
2022-08-26T08:00:59.444Z,91.50
2022-08-26T08:07:47.148Z,90.20
2022-08-26T08:10:27.249Z,88.80
2022-08-26T08:13:19.698Z,90.10
2022-08-26T08:16:12.508Z,89.10
2022-08-26T08:19:00.171Z,88.70
2022-08-26T08:21:43.338Z,88.20
2022-08-26T08:25:11.900Z,88.30
2022-08-26T08:28:19.299Z,87.00
2022-08-26T08:40:00.119Z,88.20
2022-08-26T08:42:58.769Z,88.80
2022-08-26T08:46:52.201Z,88.60
2022-08-26T08:49:33.096Z,88.40
2022-08-26T08:56:53.106Z,88.10
2022-08-26T08:59:57.699Z,88.00
2022-08-26T09:03:01.849Z,87.80
2022-08-26T09:05:53.273Z,86.60
2022-08-26T09:08:35.810Z,87.20
2022-08-26T09:11:26.778Z,86.70
2022-08-26T09:15:22.172Z,87.20
2022-08-26T09:27:29.348Z,86.00
2022-08-26T09:34:21.810Z,85.60
2022-08-26T09:37:12.310Z,84.60
2022-08-26T09:41:05.171Z,84.90
2022-08-26T09:47:56.320Z,84.30
2022-08-26T09:51:09.115Z,83.30
2022-08-26T09:54:30.459Z,83.30
2022-08-26T09:58:04.056Z,82.50
2022-08-26T10:01:09.043Z,82.80
2022-08-26T10:04:08.947Z,82.50
2022-08-26T10:06:59.721Z,81.50
2022-08-26T10:10:59.058Z,81.90
2022-08-26T10:18:03.473Z,82.20
2022-08-26T10:20:54.887Z,82.60
2022-08-26T10:23:56.993Z,82.60
2022-08-26T10:26:44.786Z,82.20
2022-08-26T10:33:26.916Z,82.80
2022-08-26T10:40:20.051Z,82.50
2022-08-26T10:51:26.575Z,83.70
2022-08-26T10:54:40.992Z,83.40
2022-08-26T10:57:30.172Z,81.80
2022-08-26T11:01:22.882Z,82.20
2022-08-26T11:04:48.092Z,80.90
2022-08-26T11:07:45.584Z,82.10
2022-08-26T11:15:14.054Z,83.60
2022-08-26T11:26:35.975Z,83.00
2022-08-26T11:30:28.114Z,82.10
2022-08-26T11:40:01.312Z,81.40
2022-08-26T11:42:46.041Z,80.40
2022-08-26T11:45:38.037Z,80.60
2022-08-26T11:48:35.031Z,80.00
2022-08-26T11:51:31.952Z,79.50
2022-08-26T11:54:29.255Z,78.40
2022-08-26T11:57:45.529Z,77.70
2022-08-26T12:04:35.905Z,76.80
2022-08-26T12:08:11.567Z,76.50
2022-08-26T12:11:11.388Z,75.00
2022-08-26T12:14:21.119Z,76.40
2022-08-26T12:17:54.274Z,75.70
2022-08-26T12:20:47.991Z,74.60
2022-08-26T12:23:27.421Z,75.10
2022-08-26T12:26:11.266Z,75.60
2022-08-26T12:28:48.804Z,76.90
2022-08-26T12:31:29.999Z,77.00
2022-08-26T12:34:17.944Z,76.90
2022-08-26T12:39:39.742Z,76.90
2022-08-26T12:43:23.494Z,76.20
2022-08-26T12:46:59.738Z,76.20
2022-08-26T12:50:35.425Z,77.00
2022-08-26T12:53:28.219Z,75.20
2022-08-26T13:00:34.816Z,73.60
2022-08-26T13:07:30.612Z,74.00
2022-08-26T13:10:07.928Z,74.50
2022-08-26T13:12:42.622Z,76.40
2022-08-26T13:16:20.567Z,76.30
2022-08-26T13:20:05.434Z,73.90
2022-08-26T13:23:06.355Z,73.10
2022-08-26T13:26:07.502Z,73.70
2022-08-26T13:28:43.559Z,74.40
2022-08-26T13:32:28.365Z,75.00
2022-08-26T13:35:18.762Z,73.80
2022-08-26T13:38:20.579Z,73.00
2022-08-26T13:41:34.886Z,71.90
2022-08-26T13:44:13.522Z,73.30
2022-08-26T13:46:48.727Z,73.30
2022-08-26T13:49:45.463Z,71.80
2022-08-26T13:52:31.269Z,72.60
2022-08-26T13:55:07.919Z,73.50
2022-08-26T13:57:50.056Z,71.00
2022-08-26T14:00:25.005Z,71.60
2022-08-26T14:03:00.874Z,71.70
2022-08-26T14:05:35.834Z,69.60
2022-08-26T14:08:19.928Z,72.00
2022-08-26T14:11:06.941Z,70.60
2022-08-26T14:14:03.156Z,70.60
2022-08-26T14:16:56.073Z,69.80
2022-08-26T14:19:34.498Z,73.00
2022-08-26T14:22:12.911Z,72.70
2022-08-26T14:24:48.044Z,71.90
2022-08-26T14:27:30.958Z,72.90
2022-08-26T14:30:10.529Z,73.30
2022-08-26T14:32:58.622Z,73.70
2022-08-26T14:35:36.483Z,72.80
2022-08-26T14:38:24.138Z,73.90
2022-08-26T14:41:24.930Z,75.00
2022-08-26T14:44:49.094Z,74.40
2022-08-26T14:47:32.042Z,75.40
2022-08-26T14:50:14.509Z,71.10
2022-08-26T14:53:06.589Z,75.80
2022-08-26T14:55:43.887Z,74.90
2022-08-26T14:58:18.347Z,75.20
2022-08-26T15:00:53.396Z,75.50
2022-08-26T15:07:43.725Z,76.00
2022-08-26T15:11:00.701Z,81.40
2022-08-26T15:13:36.368Z,79.40
2022-08-26T15:16:18.783Z,85.70
2022-08-26T15:18:54.410Z,86.90
2022-08-26T15:21:37.995Z,88.40
2022-08-26T15:24:28.923Z,89.20
2022-08-26T15:28:17.993Z,89.90
2022-08-26T15:30:54.385Z,89.60
2022-08-26T15:33:28.853Z,90.60
2022-08-26T15:36:13.849Z,91.20
2022-08-26T15:39:12.711Z,91.10
2022-08-26T15:41:48.706Z,91.50
2022-08-26T15:44:26.323Z,92.00
2022-08-26T15:47:07.016Z,92.10
2022-08-26T15:49:48.859Z,91.70
2022-08-26T15:52:31.447Z,92.10
2022-08-26T15:55:13.491Z,92.70
2022-08-26T15:58:14.784Z,93.00
2022-08-26T16:01:10.626Z,92.80
2022-08-26T16:03:51.518Z,93.60
2022-08-26T16:06:49.482Z,93.80
2022-08-26T16:09:27.283Z,93.60
2022-08-26T16:12:19.945Z,93.70
2022-08-26T16:15:11.968Z,93.70
2022-08-26T16:17:47.377Z,93.90
2022-08-26T16:20:40.198Z,94.30
2022-08-26T16:23:39.062Z,93.60
2022-08-26T16:26:28.784Z,93.90
2022-08-26T16:29:19.804Z,93.70
2022-08-26T16:32:10.569Z,93.70
2022-08-26T16:34:56.656Z,94.10
2022-08-26T16:37:56.141Z,94.40
2022-08-26T16:40:33.243Z,94.80
2022-08-26T16:46:16.782Z,94.80
2022-08-26T16:49:04.783Z,94.70
2022-08-26T16:51:41.141Z,93.90
2022-08-26T16:54:25.120Z,90.40
2022-08-26T16:57:14.830Z,91.00
2022-08-26T17:02:42.141Z,90.80
2022-08-26T17:05:22.946Z,91.80
2022-08-26T17:08:21.827Z,91.70
2022-08-26T17:11:04.711Z,91.30
2022-08-26T17:13:43.476Z,90.40
2022-08-26T17:16:31.977Z,91.00
2022-08-26T17:19:08.629Z,91.50
2022-08-26T17:22:06.134Z,91.80
2022-08-26T17:24:41.138Z,91.70
2022-08-26T17:27:17.355Z,92.60
2022-08-26T17:29:52.151Z,91.50
2022-08-26T17:32:28.596Z,91.70
2022-08-26T17:35:05.952Z,91.30
2022-08-26T17:38:00.342Z,91.30
2022-08-26T17:40:38.597Z,92.20
2022-08-26T17:43:14.920Z,91.40
2022-08-26T17:45:51.162Z,92.00
2022-08-26T17:48:27.268Z,91.20
2022-08-26T17:51:17.327Z,92.60
2022-08-26T17:57:27.705Z,92.50
2022-08-26T18:09:36.505Z,94.00
2022-08-26T18:12:22.733Z,94.70
2022-08-26T18:15:10.291Z,94.80
2022-08-26T18:17:50.000Z,94.50
2022-08-26T18:20:54.073Z,94.70
2022-08-26T18:23:38.089Z,94.50
2022-08-26T18:26:40.507Z,94.90
2022-08-26T18:29:15.402Z,95.10
2022-08-26T18:31:51.422Z,95.60
2022-08-26T18:34:32.019Z,94.90
2022-08-26T18:37:20.153Z,96.20
2022-08-26T18:40:06.336Z,95.40
2022-08-26T18:43:12.901Z,95.40
2022-08-26T18:45:49.185Z,96.10
2022-08-26T18:51:54.225Z,95.60
2022-08-26T18:54:40.918Z,95.70
2022-08-26T18:57:23.110Z,95.20
2022-08-26T19:03:05.133Z,95.30
2022-08-26T19:06:36.290Z,95.80
2022-08-26T19:09:28.015Z,95.70
2022-08-26T19:15:42.128Z,95.90
2022-08-26T19:18:20.396Z,95.30
2022-08-26T19:21:00.657Z,95.20
2022-08-26T19:23:35.824Z,95.50
2022-08-26T19:26:13.438Z,95.40
2022-08-26T19:28:59.169Z,95.60
2022-08-26T19:31:53.429Z,95.70
2022-08-26T19:34:43.446Z,96.10
2022-08-26T19:37:37.352Z,96.60
2022-08-26T19:40:13.131Z,96.10
2022-08-26T19:42:55.241Z,96.10
2022-08-26T19:45:37.878Z,96.20
2022-08-26T19:48:14.509Z,96.30
2022-08-26T19:51:26.200Z,96.70
2022-08-26T19:54:02.478Z,96.60
2022-08-26T19:56:46.898Z,97.00
2022-08-26T19:59:24.516Z,97.40
2022-08-26T20:02:01.109Z,97.20
2022-08-26T20:04:38.578Z,97.40
2022-08-26T20:07:18.540Z,97.80
2022-08-26T20:09:53.508Z,97.10
2022-08-26T20:12:29.456Z,97.50
2022-08-26T20:15:05.409Z,97.10
2022-08-26T20:17:49.341Z,97.10
2022-08-26T20:20:43.695Z,97.80
2022-08-26T20:23:18.318Z,97.20
2022-08-26T20:25:57.791Z,97.60
2022-08-26T20:28:51.040Z,97.50
2022-08-26T20:31:38.128Z,97.30
2022-08-26T20:34:13.304Z,97.40
2022-08-26T20:37:04.492Z,97.40
2022-08-26T20:39:39.225Z,97.50
2022-08-26T20:42:20.185Z,97.30
2022-08-26T20:44:55.275Z,97.30
2022-08-26T20:47:30.510Z,98.00
2022-08-26T20:50:06.661Z,97.60
2022-08-26T20:52:46.834Z,97.40
2022-08-26T20:55:30.631Z,98.20
2022-08-26T20:58:26.458Z,97.90
2022-08-26T21:01:54.154Z,97.20
2022-08-26T21:04:29.287Z,97.30
2022-08-26T21:07:04.492Z,97.50
2022-08-26T21:09:43.697Z,97.70
2022-08-26T21:12:31.574Z,97.70
2022-08-26T21:15:36.307Z,98.10
2022-08-26T21:18:13.726Z,97.30
2022-08-26T21:21:08.865Z,97.80
2022-08-26T21:23:43.948Z,97.10
2022-08-26T21:26:20.637Z,98.20
2022-08-26T21:29:03.959Z,98.60
2022-08-26T21:31:46.589Z,98.00
2022-08-26T21:34:21.511Z,98.10
2022-08-26T21:36:55.948Z,97.50
2022-08-26T21:39:30.838Z,97.60
2022-08-26T21:42:07.531Z,97.20
2022-08-26T21:44:43.601Z,97.40
2022-08-26T21:47:20.989Z,97.70
2022-08-26T21:49:56.543Z,98.30
2022-08-26T21:52:30.996Z,97.90
2022-08-26T21:55:08.791Z,98.00
2022-08-26T21:57:50.784Z,97.70
2022-08-26T22:00:26.271Z,97.70
2022-08-26T22:03:01.528Z,97.50
2022-08-26T22:05:43.690Z,98.10
2022-08-26T22:08:20.167Z,97.60
2022-08-26T22:10:55.669Z,97.80
2022-08-26T22:13:36.601Z,97.70
2022-08-26T22:16:13.387Z,98.00
2022-08-26T22:19:25.496Z,97.80
2022-08-26T22:22:01.427Z,97.70
2022-08-26T22:24:37.513Z,97.60
2022-08-26T22:27:13.906Z,97.90
2022-08-26T22:29:51.199Z,98.30
2022-08-26T22:32:25.703Z,98.60
2022-08-26T22:35:00.755Z,98.60
2022-08-26T22:37:42.919Z,98.80
2022-08-26T22:40:17.915Z,99.00
2022-08-26T22:42:55.641Z,98.30
2022-08-26T22:45:49.471Z,98.70
2022-08-26T22:48:26.996Z,98.10
2022-08-26T22:51:02.189Z,98.60
2022-08-26T22:53:37.300Z,98.60
2022-08-26T22:56:18.381Z,98.80
2022-08-26T22:58:52.723Z,98.70
2022-08-26T23:01:28.651Z,98.80
2022-08-26T23:04:08.917Z,98.90
2022-08-26T23:07:12.366Z,98.20
2022-08-26T23:10:12.436Z,98.30
2022-08-26T23:13:36.277Z,98.20
2022-08-26T23:16:14.310Z,98.20
2022-08-26T23:19:15.182Z,98.50
2022-08-26T23:21:51.144Z,98.40
2022-08-26T23:24:25.929Z,98.40
2022-08-26T23:27:12.795Z,99.10
2022-08-26T23:29:49.835Z,98.80
2022-08-26T23:32:24.342Z,99.00
2022-08-26T23:36:18.123Z,98.30
2022-08-26T23:39:27.153Z,98.30
2022-08-26T23:42:24.453Z,98.70
2022-08-26T23:45:02.471Z,98.70
2022-08-26T23:47:37.900Z,98.80
2022-08-26T23:50:14.486Z,99.60
2022-08-26T23:53:23.227Z,99.00
2022-08-26T23:56:03.336Z,99.00
2022-08-26T23:58:43.259Z,98.80
